sensor_id;sensor_type;location;lat;lon;timestamp;temperature;humidity
51579;DHT22;47998;53.242;6.386;2022-12-29T00:01:30;9.90;99.90
51579;DHT22;47998;53.242;6.386;2022-12-29T00:03:59;9.80;99.90
51579;DHT22;47998;53.242;6.386;2022-12-29T00:06:25;9.90;99.90
51579;DHT22;47998;53.242;6.386;2022-12-29T00:08:50;9.80;99.90
51579;DHT22;47998;53.242;6.386;2022-12-29T00:11:21;9.90;99.90
51579;DHT22;47998;53.242;6.386;2022-12-29T00:13:48;9.90;99.90
51579;DHT22;47998;53.242;6.386;2022-12-29T00:16:34;9.90;99.90
51579;DHT22;47998;53.242;6.386;2022-12-29T00:19:00;9.90;99.90
51579;DHT22;47998;53.242;6.386;2022-12-29T00:21:26;10.00;99.90
51579;DHT22;47998;53.242;6.386;2022-12-29T00:24:20;10.10;99.90
51579;DHT22;47998;53.242;6.386;2022-12-29T00:29:49;10.20;99.90
51579;DHT22;47998;53.242;6.386;2022-12-29T00:32:33;10.10;99.90
51579;DHT22;47998;53.242;6.386;2022-12-29T00:35:30;10.20;99.90
51579;DHT22;47998;53.242;6.386;2022-12-29T00:37:59;10.20;99.90
51579;DHT22;47998;53.242;6.386;2022-12-29T00:40:44;10.20;99.90
51579;DHT22;47998;53.242;6.386;2022-12-29T00:43:29;10.30;99.90
51579;DHT22;47998;53.242;6.386;2022-12-29T00:46:13;10.30;99.90
51579;DHT22;47998;53.242;6.386;2022-12-29T00:48:39;10.30;99.90
51579;DHT22;47998;53.242;6.386;2022-12-29T00:51:23;10.30;99.90
51579;DHT22;47998;53.242;6.386;2022-12-29T00:53:49;10.40;99.90
51579;DHT22;47998;53.242;6.386;2022-12-29T00:56:15;10.40;99.90
51579;DHT22;47998;53.242;6.386;2022-12-29T00:58:41;10.40;99.90
51579;DHT22;47998;53.242;6.386;2022-12-29T01:01:08;10.40;99.90
51579;DHT22;47998;53.242;6.386;2022-12-29T01:03:35;10.40;99.90
51579;DHT22;47998;53.242;6.386;2022-12-29T01:06:06;10.40;99.90
51579;DHT22;47998;53.242;6.386;2022-12-29T01:08:33;10.40;99.90
51579;DHT22;47998;53.242;6.386;2022-12-29T01:11:12;10.40;99.90
51579;DHT22;47998;53.242;6.386;2022-12-29T01:13:44;10.40;99.90
51579;DHT22;47998;53.242;6.386;2022-12-29T01:16:09;10.40;99.90
51579;DHT22;47998;53.242;6.386;2022-12-29T01:18:35;10.40;99.90
51579;DHT22;47998;53.242;6.386;2022-12-29T01:21:03;10.40;99.90
51579;DHT22;47998;53.242;6.386;2022-12-29T01:23:30;10.40;99.90
51579;DHT22;47998;53.242;6.386;2022-12-29T01:25:56;10.40;99.90
51579;DHT22;47998;53.242;6.386;2022-12-29T01:28:23;10.30;99.90
51579;DHT22;47998;53.242;6.386;2022-12-29T01:30:52;10.30;99.90
51579;DHT22;47998;53.242;6.386;2022-12-29T01:33:17;10.30;99.90
51579;DHT22;47998;53.242;6.386;2022-12-29T01:35:43;10.30;99.90
51579;DHT22;47998;53.242;6.386;2022-12-29T01:38:09;10.20;99.90
51579;DHT22;47998;53.242;6.386;2022-12-29T01:40:43;10.20;99.90
51579;DHT22;47998;53.242;6.386;2022-12-29T01:43:11;10.20;99.90
51579;DHT22;47998;53.242;6.386;2022-12-29T01:45:37;10.20;99.90
51579;DHT22;47998;53.242;6.386;2022-12-29T01:48:05;10.20;99.90
51579;DHT22;47998;53.242;6.386;2022-12-29T01:50:40;10.10;99.90
51579;DHT22;47998;53.242;6.386;2022-12-29T01:53:24;10.10;99.90
51579;DHT22;47998;53.242;6.386;2022-12-29T01:55:57;10.10;99.90
51579;DHT22;47998;53.242;6.386;2022-12-29T01:58:30;10.10;99.90
51579;DHT22;47998;53.242;6.386;2022-12-29T02:00:57;10.00;99.90
51579;DHT22;47998;53.242;6.386;2022-12-29T02:03:26;10.00;99.90
51579;DHT22;47998;53.242;6.386;2022-12-29T02:06:17;10.00;99.90
51579;DHT22;47998;53.242;6.386;2022-12-29T02:08:46;10.00;99.90
51579;DHT22;47998;53.242;6.386;2022-12-29T02:11:13;10.00;99.90
51579;DHT22;47998;53.242;6.386;2022-12-29T02:13:39;9.90;99.90
51579;DHT22;47998;53.242;6.386;2022-12-29T02:32:52;9.80;99.90
51579;DHT22;47998;53.242;6.386;2022-12-29T02:35:44;9.80;99.90
51579;DHT22;47998;53.242;6.386;2022-12-29T02:38:37;9.70;99.90
51579;DHT22;47998;53.242;6.386;2022-12-29T02:44:14;9.70;99.90
51579;DHT22;47998;53.242;6.386;2022-12-29T02:46:49;9.70;99.90
51579;DHT22;47998;53.242;6.386;2022-12-29T02:49:33;9.70;99.90
51579;DHT22;47998;53.242;6.386;2022-12-29T02:52:04;9.70;99.90
51579;DHT22;47998;53.242;6.386;2022-12-29T02:54:32;9.70;99.90
51579;DHT22;47998;53.242;6.386;2022-12-29T02:57:27;9.70;99.90
51579;DHT22;47998;53.242;6.386;2022-12-29T03:00:02;9.80;99.90
51579;DHT22;47998;53.242;6.386;2022-12-29T03:18:47;9.90;99.90
51579;DHT22;47998;53.242;6.386;2022-12-29T03:21:25;9.90;99.90
51579;DHT22;47998;53.242;6.386;2022-12-29T03:24:13;9.90;99.90
51579;DHT22;47998;53.242;6.386;2022-12-29T03:26:41;9.90;99.90
51579;DHT22;47998;53.242;6.386;2022-12-29T03:29:08;9.90;99.90
51579;DHT22;47998;53.242;6.386;2022-12-29T03:31:36;9.90;99.90
51579;DHT22;47998;53.242;6.386;2022-12-29T03:34:04;9.90;99.90
51579;DHT22;47998;53.242;6.386;2022-12-29T03:36:40;9.80;99.90
51579;DHT22;47998;53.242;6.386;2022-12-29T03:39:12;9.80;99.90
51579;DHT22;47998;53.242;6.386;2022-12-29T03:41:41;9.80;99.90
51579;DHT22;47998;53.242;6.386;2022-12-29T03:44:08;9.80;99.90
51579;DHT22;47998;53.242;6.386;2022-12-29T03:46:34;9.70;99.90
51579;DHT22;47998;53.242;6.386;2022-12-29T03:49:00;9.60;99.90
51579;DHT22;47998;53.242;6.386;2022-12-29T03:51:25;9.70;99.90
51579;DHT22;47998;53.242;6.386;2022-12-29T03:53:51;9.60;99.90
51579;DHT22;47998;53.242;6.386;2022-12-29T03:56:17;9.60;99.90
51579;DHT22;47998;53.242;6.386;2022-12-29T03:58:43;9.30;99.90
51579;DHT22;47998;53.242;6.386;2022-12-29T04:01:08;9.60;99.90
51579;DHT22;47998;53.242;6.386;2022-12-29T04:03:34;9.50;99.90
51579;DHT22;47998;53.242;6.386;2022-12-29T04:06:00;9.50;99.90
51579;DHT22;47998;53.242;6.386;2022-12-29T04:08:25;9.50;99.90
51579;DHT22;47998;53.242;6.386;2022-12-29T04:10:51;9.60;99.90
51579;DHT22;47998;53.242;6.386;2022-12-29T04:13:17;9.60;99.90
51579;DHT22;47998;53.242;6.386;2022-12-29T04:15:44;9.60;99.90
51579;DHT22;47998;53.242;6.386;2022-12-29T04:18:11;9.70;99.90
51579;DHT22;47998;53.242;6.386;2022-12-29T04:20:37;9.70;99.90
51579;DHT22;47998;53.242;6.386;2022-12-29T04:23:22;9.70;99.90
51579;DHT22;47998;53.242;6.386;2022-12-29T04:25:48;9.80;99.90
51579;DHT22;47998;53.242;6.386;2022-12-29T04:28:15;9.80;99.90
51579;DHT22;47998;53.242;6.386;2022-12-29T04:30:42;9.70;99.90
51579;DHT22;47998;53.242;6.386;2022-12-29T04:33:08;9.90;99.90
51579;DHT22;47998;53.242;6.386;2022-12-29T04:35:34;9.90;99.90
51579;DHT22;47998;53.242;6.386;2022-12-29T04:37:59;9.90;99.90
51579;DHT22;47998;53.242;6.386;2022-12-29T04:40:25;9.80;99.90
51579;DHT22;47998;53.242;6.386;2022-12-29T04:42:51;9.80;99.90
51579;DHT22;47998;53.242;6.386;2022-12-29T04:45:17;9.80;99.90
51579;DHT22;47998;53.242;6.386;2022-12-29T04:47:43;9.70;99.90
51579;DHT22;47998;53.242;6.386;2022-12-29T04:50:09;9.70;99.90
51579;DHT22;47998;53.242;6.386;2022-12-29T04:52:34;9.70;99.90
51579;DHT22;47998;53.242;6.386;2022-12-29T04:55:00;9.70;99.90
51579;DHT22;47998;53.242;6.386;2022-12-29T04:57:26;9.60;99.90
51579;DHT22;47998;53.242;6.386;2022-12-29T04:59:52;9.50;99.90
51579;DHT22;47998;53.242;6.386;2022-12-29T05:02:18;9.40;99.90
51579;DHT22;47998;53.242;6.386;2022-12-29T05:04:44;9.40;99.90
51579;DHT22;47998;53.242;6.386;2022-12-29T05:07:10;9.30;99.90
51579;DHT22;47998;53.242;6.386;2022-12-29T05:09:35;9.30;99.90
51579;DHT22;47998;53.242;6.386;2022-12-29T05:12:01;9.30;99.90
51579;DHT22;47998;53.242;6.386;2022-12-29T05:14:27;9.40;99.90
51579;DHT22;47998;53.242;6.386;2022-12-29T05:16:53;9.40;99.90
51579;DHT22;47998;53.242;6.386;2022-12-29T05:19:18;9.30;99.90
51579;DHT22;47998;53.242;6.386;2022-12-29T05:21:44;9.20;99.90
51579;DHT22;47998;53.242;6.386;2022-12-29T05:24:10;9.20;99.90
51579;DHT22;47998;53.242;6.386;2022-12-29T05:26:36;9.20;99.90
51579;DHT22;47998;53.242;6.386;2022-12-29T05:29:02;9.20;99.90
51579;DHT22;47998;53.242;6.386;2022-12-29T05:31:27;9.10;99.90
51579;DHT22;47998;53.242;6.386;2022-12-29T05:33:53;9.10;99.90
51579;DHT22;47998;53.242;6.386;2022-12-29T05:36:20;9.10;99.90
51579;DHT22;47998;53.242;6.386;2022-12-29T05:38:45;9.10;99.90
51579;DHT22;47998;53.242;6.386;2022-12-29T05:41:11;9.10;99.90
51579;DHT22;47998;53.242;6.386;2022-12-29T05:43:37;9.10;99.90
51579;DHT22;47998;53.242;6.386;2022-12-29T05:46:03;9.10;99.90
51579;DHT22;47998;53.242;6.386;2022-12-29T05:48:29;9.00;99.90
51579;DHT22;47998;53.242;6.386;2022-12-29T05:50:55;9.10;99.90
51579;DHT22;47998;53.242;6.386;2022-12-29T05:53:21;9.20;99.90
51579;DHT22;47998;53.242;6.386;2022-12-29T05:55:47;9.30;99.90
51579;DHT22;47998;53.242;6.386;2022-12-29T05:58:15;9.40;99.90
51579;DHT22;47998;53.242;6.386;2022-12-29T06:00:40;9.40;99.90
51579;DHT22;47998;53.242;6.386;2022-12-29T06:03:06;9.40;99.90
51579;DHT22;47998;53.242;6.386;2022-12-29T06:05:32;9.40;99.90
51579;DHT22;47998;53.242;6.386;2022-12-29T06:07:58;9.40;99.90
51579;DHT22;47998;53.242;6.386;2022-12-29T06:10:23;9.40;99.90
51579;DHT22;47998;53.242;6.386;2022-12-29T06:12:49;9.40;99.90
51579;DHT22;47998;53.242;6.386;2022-12-29T06:15:15;9.40;99.90
51579;DHT22;47998;53.242;6.386;2022-12-29T06:17:41;9.40;99.90
51579;DHT22;47998;53.242;6.386;2022-12-29T06:20:07;9.30;99.90
51579;DHT22;47998;53.242;6.386;2022-12-29T06:22:33;9.40;99.90
51579;DHT22;47998;53.242;6.386;2022-12-29T06:24:59;9.30;99.90
51579;DHT22;47998;53.242;6.386;2022-12-29T06:27:25;9.30;99.90
51579;DHT22;47998;53.242;6.386;2022-12-29T06:29:51;9.20;99.90
51579;DHT22;47998;53.242;6.386;2022-12-29T06:32:16;9.20;99.90
51579;DHT22;47998;53.242;6.386;2022-12-29T06:34:42;9.20;99.90
51579;DHT22;47998;53.242;6.386;2022-12-29T06:37:10;9.10;99.90
51579;DHT22;47998;53.242;6.386;2022-12-29T06:39:36;9.10;99.90
51579;DHT22;47998;53.242;6.386;2022-12-29T06:42:02;9.20;99.90
51579;DHT22;47998;53.242;6.386;2022-12-29T06:44:28;9.20;99.90
51579;DHT22;47998;53.242;6.386;2022-12-29T06:46:54;9.20;99.90
51579;DHT22;47998;53.242;6.386;2022-12-29T06:49:20;9.20;99.90
51579;DHT22;47998;53.242;6.386;2022-12-29T06:51:46;9.10;99.90
51579;DHT22;47998;53.242;6.386;2022-12-29T06:54:12;9.10;99.90
51579;DHT22;47998;53.242;6.386;2022-12-29T06:56:38;9.00;99.90
51579;DHT22;47998;53.242;6.386;2022-12-29T06:59:04;9.00;99.90
51579;DHT22;47998;53.242;6.386;2022-12-29T07:01:30;9.00;99.90
51579;DHT22;47998;53.242;6.386;2022-12-29T07:03:56;9.00;99.90
51579;DHT22;47998;53.242;6.386;2022-12-29T07:06:23;9.00;99.90
51579;DHT22;47998;53.242;6.386;2022-12-29T07:08:49;9.10;99.90
51579;DHT22;47998;53.242;6.386;2022-12-29T07:11:14;9.10;99.90
51579;DHT22;47998;53.242;6.386;2022-12-29T07:13:40;9.10;99.90
51579;DHT22;47998;53.242;6.386;2022-12-29T07:16:09;9.00;99.90
51579;DHT22;47998;53.242;6.386;2022-12-29T07:18:35;8.90;99.90
51579;DHT22;47998;53.242;6.386;2022-12-29T07:21:01;9.00;99.90
51579;DHT22;47998;53.242;6.386;2022-12-29T07:23:27;9.10;99.90
51579;DHT22;47998;53.242;6.386;2022-12-29T07:26:06;9.10;99.90
51579;DHT22;47998;53.242;6.386;2022-12-29T07:28:35;9.10;99.90
51579;DHT22;47998;53.242;6.386;2022-12-29T07:31:05;9.10;99.90
51579;DHT22;47998;53.242;6.386;2022-12-29T07:33:31;9.10;99.90
51579;DHT22;47998;53.242;6.386;2022-12-29T07:35:58;9.20;99.90
51579;DHT22;47998;53.242;6.386;2022-12-29T07:38:24;9.20;99.90
51579;DHT22;47998;53.242;6.386;2022-12-29T07:40:50;9.30;99.90
51579;DHT22;47998;53.242;6.386;2022-12-29T07:43:16;9.30;99.90
51579;DHT22;47998;53.242;6.386;2022-12-29T07:45:42;9.40;99.90
51579;DHT22;47998;53.242;6.386;2022-12-29T07:48:08;9.40;99.90
51579;DHT22;47998;53.242;6.386;2022-12-29T07:50:37;9.30;99.90
51579;DHT22;47998;53.242;6.386;2022-12-29T07:53:03;9.30;99.90
51579;DHT22;47998;53.242;6.386;2022-12-29T07:55:29;9.30;99.90
51579;DHT22;47998;53.242;6.386;2022-12-29T07:57:55;9.40;99.90
51579;DHT22;47998;53.242;6.386;2022-12-29T08:00:22;9.30;99.90
51579;DHT22;47998;53.242;6.386;2022-12-29T08:02:48;9.40;99.90
51579;DHT22;47998;53.242;6.386;2022-12-29T08:05:14;9.30;99.90
51579;DHT22;47998;53.242;6.386;2022-12-29T08:07:43;9.30;99.90
51579;DHT22;47998;53.242;6.386;2022-12-29T08:10:10;9.40;99.90
51579;DHT22;47998;53.242;6.386;2022-12-29T08:12:37;9.30;99.90
51579;DHT22;47998;53.242;6.386;2022-12-29T08:15:04;9.40;99.90
51579;DHT22;47998;53.242;6.386;2022-12-29T08:17:30;9.40;99.90
51579;DHT22;47998;53.242;6.386;2022-12-29T08:19:56;9.40;99.90
51579;DHT22;47998;53.242;6.386;2022-12-29T08:22:22;9.40;99.90
51579;DHT22;47998;53.242;6.386;2022-12-29T08:24:51;9.40;99.90
51579;DHT22;47998;53.242;6.386;2022-12-29T08:27:17;9.40;99.90
51579;DHT22;47998;53.242;6.386;2022-12-29T08:29:43;9.40;99.90
51579;DHT22;47998;53.242;6.386;2022-12-29T08:32:10;9.40;99.90
51579;DHT22;47998;53.242;6.386;2022-12-29T08:34:36;9.50;99.90
51579;DHT22;47998;53.242;6.386;2022-12-29T08:37:01;9.40;99.90
51579;DHT22;47998;53.242;6.386;2022-12-29T08:39:27;9.30;99.90
51579;DHT22;47998;53.242;6.386;2022-12-29T08:41:53;9.20;99.90
51579;DHT22;47998;53.242;6.386;2022-12-29T08:44:19;9.20;99.90
51579;DHT22;47998;53.242;6.386;2022-12-29T08:46:45;9.20;99.90
51579;DHT22;47998;53.242;6.386;2022-12-29T08:49:11;9.20;99.90
51579;DHT22;47998;53.242;6.386;2022-12-29T08:51:37;9.30;99.90
51579;DHT22;47998;53.242;6.386;2022-12-29T08:54:02;9.30;99.90
51579;DHT22;47998;53.242;6.386;2022-12-29T08:56:28;9.30;99.90
51579;DHT22;47998;53.242;6.386;2022-12-29T08:58:55;9.30;99.90
51579;DHT22;47998;53.242;6.386;2022-12-29T09:01:21;9.30;99.90
51579;DHT22;47998;53.242;6.386;2022-12-29T09:03:47;9.20;99.90
51579;DHT22;47998;53.242;6.386;2022-12-29T09:06:14;9.30;99.90
51579;DHT22;47998;53.242;6.386;2022-12-29T09:08:40;9.20;99.90
51579;DHT22;47998;53.242;6.386;2022-12-29T09:11:08;9.20;99.90
51579;DHT22;47998;53.242;6.386;2022-12-29T09:13:35;9.10;99.90
51579;DHT22;47998;53.242;6.386;2022-12-29T09:16:01;9.10;99.90
51579;DHT22;47998;53.242;6.386;2022-12-29T09:18:26;9.00;99.90
51579;DHT22;47998;53.242;6.386;2022-12-29T09:21:00;8.90;99.90
51579;DHT22;47998;53.242;6.386;2022-12-29T09:23:26;8.80;99.90
51579;DHT22;47998;53.242;6.386;2022-12-29T09:25:53;8.90;99.90
51579;DHT22;47998;53.242;6.386;2022-12-29T09:28:20;8.90;99.90
51579;DHT22;47998;53.242;6.386;2022-12-29T09:30:46;9.00;99.90
51579;DHT22;47998;53.242;6.386;2022-12-29T09:33:12;9.00;99.90
51579;DHT22;47998;53.242;6.386;2022-12-29T09:35:43;9.00;99.90
51579;DHT22;47998;53.242;6.386;2022-12-29T09:38:09;8.90;99.90
51579;DHT22;47998;53.242;6.386;2022-12-29T09:40:35;8.90;99.90
51579;DHT22;47998;53.242;6.386;2022-12-29T09:43:42;8.90;99.90
51579;DHT22;47998;53.242;6.386;2022-12-29T09:48:45;8.70;99.90
51579;DHT22;47998;53.242;6.386;2022-12-29T09:51:16;8.70;99.90
51579;DHT22;47998;53.242;6.386;2022-12-29T09:53:53;8.70;99.90
51579;DHT22;47998;53.242;6.386;2022-12-29T09:56:23;8.80;99.90
51579;DHT22;47998;53.242;6.386;2022-12-29T09:59:15;8.90;99.90
51579;DHT22;47998;53.242;6.386;2022-12-29T10:01:59;8.90;99.90
51579;DHT22;47998;53.242;6.386;2022-12-29T10:04:30;8.70;99.90
51579;DHT22;47998;53.242;6.386;2022-12-29T10:07:05;8.80;99.90
51579;DHT22;47998;53.242;6.386;2022-12-29T10:17:53;8.60;99.90
51579;DHT22;47998;53.242;6.386;2022-12-29T10:20:38;8.60;99.90
51579;DHT22;47998;53.242;6.386;2022-12-29T10:25:53;8.40;99.90
51579;DHT22;47998;53.242;6.386;2022-12-29T10:28:33;8.60;99.90
51579;DHT22;47998;53.242;6.386;2022-12-29T10:31:01;8.70;99.90
51579;DHT22;47998;53.242;6.386;2022-12-29T10:33:41;8.60;99.90
51579;DHT22;47998;53.242;6.386;2022-12-29T10:36:38;8.60;99.90
51579;DHT22;47998;53.242;6.386;2022-12-29T10:39:31;8.60;99.90
51579;DHT22;47998;53.242;6.386;2022-12-29T10:42:09;8.60;99.90
51579;DHT22;47998;53.242;6.386;2022-12-29T10:44:36;8.60;99.90
51579;DHT22;47998;53.242;6.386;2022-12-29T10:47:06;8.60;99.90
51579;DHT22;47998;53.242;6.386;2022-12-29T10:49:38;8.70;99.90
51579;DHT22;47998;53.242;6.386;2022-12-29T10:52:05;8.80;99.90
51579;DHT22;47998;53.242;6.386;2022-12-29T10:59:47;8.90;99.90
51579;DHT22;47998;53.242;6.386;2022-12-29T11:07:57;8.90;99.90
51579;DHT22;47998;53.242;6.386;2022-12-29T11:13:13;8.90;99.90
51579;DHT22;47998;53.242;6.386;2022-12-29T11:18:23;9.00;99.90
51579;DHT22;47998;53.242;6.386;2022-12-29T11:20:57;9.00;99.90
51579;DHT22;47998;53.242;6.386;2022-12-29T11:26:17;9.00;99.90
51579;DHT22;47998;53.242;6.386;2022-12-29T11:28:47;9.10;99.90
51579;DHT22;47998;53.242;6.386;2022-12-29T11:31:28;9.10;99.90
51579;DHT22;47998;53.242;6.386;2022-12-29T11:33:54;9.10;99.90
51579;DHT22;47998;53.242;6.386;2022-12-29T11:36:22;9.10;99.90
51579;DHT22;47998;53.242;6.386;2022-12-29T11:38:53;9.10;99.90
51579;DHT22;47998;53.242;6.386;2022-12-29T11:41:30;9.10;99.90
51579;DHT22;47998;53.242;6.386;2022-12-29T11:44:02;9.10;99.90
51579;DHT22;47998;53.242;6.386;2022-12-29T11:46:35;9.10;99.90
51579;DHT22;47998;53.242;6.386;2022-12-29T11:49:03;9.10;99.90
51579;DHT22;47998;53.242;6.386;2022-12-29T11:51:39;9.10;99.90
51579;DHT22;47998;53.242;6.386;2022-12-29T11:54:30;9.10;99.90
51579;DHT22;47998;53.242;6.386;2022-12-29T11:56:57;9.10;99.90
51579;DHT22;47998;53.242;6.386;2022-12-29T11:59:36;9.00;99.90
51579;DHT22;47998;53.242;6.386;2022-12-29T12:05:26;8.90;99.90
51579;DHT22;47998;53.242;6.386;2022-12-29T12:08:16;8.90;99.90
51579;DHT22;47998;53.242;6.386;2022-12-29T12:11:08;8.90;99.90
51579;DHT22;47998;53.242;6.386;2022-12-29T12:16:26;9.10;99.90
51579;DHT22;47998;53.242;6.386;2022-12-29T12:19:09;9.20;99.90
51579;DHT22;47998;53.242;6.386;2022-12-29T12:21:40;9.30;99.90
51579;DHT22;47998;53.242;6.386;2022-12-29T12:32:54;9.70;99.90
51579;DHT22;47998;53.242;6.386;2022-12-29T12:36:04;9.50;99.90
51579;DHT22;47998;53.242;6.386;2022-12-29T12:53:10;9.10;99.90
51579;DHT22;47998;53.242;6.386;2022-12-29T12:56:06;9.20;99.90
51579;DHT22;47998;53.242;6.386;2022-12-29T13:01:38;9.40;99.90
51579;DHT22;47998;53.242;6.386;2022-12-29T13:07:03;9.30;99.90
51579;DHT22;47998;53.242;6.386;2022-12-29T13:15:09;9.40;99.90
51579;DHT22;47998;53.242;6.386;2022-12-29T13:26:32;9.30;99.90
51579;DHT22;47998;53.242;6.386;2022-12-29T13:29:30;9.40;99.90
51579;DHT22;47998;53.242;6.386;2022-12-29T13:37:55;9.10;99.90
51579;DHT22;47998;53.242;6.386;2022-12-29T13:40:26;9.00;99.90
51579;DHT22;47998;53.242;6.386;2022-12-29T13:42:55;8.90;99.90
51579;DHT22;47998;53.242;6.386;2022-12-29T13:45:24;8.80;99.90
51579;DHT22;47998;53.242;6.386;2022-12-29T13:48:06;8.90;99.90
51579;DHT22;47998;53.242;6.386;2022-12-29T13:50:38;8.90;99.90
51579;DHT22;47998;53.242;6.386;2022-12-29T13:53:27;9.00;99.90
51579;DHT22;47998;53.242;6.386;2022-12-29T13:58:44;9.10;99.90
51579;DHT22;47998;53.242;6.386;2022-12-29T14:01:37;9.20;99.90
51579;DHT22;47998;53.242;6.386;2022-12-29T14:04:13;9.50;99.90
51579;DHT22;47998;53.242;6.386;2022-12-29T14:06:39;9.70;99.90
51579;DHT22;47998;53.242;6.386;2022-12-29T14:09:34;9.70;99.90
51579;DHT22;47998;53.242;6.386;2022-12-29T14:15:22;9.40;99.90
51579;DHT22;47998;53.242;6.386;2022-12-29T14:18:17;9.20;99.90
51579;DHT22;47998;53.242;6.386;2022-12-29T14:23:43;9.00;99.90
51579;DHT22;47998;53.242;6.386;2022-12-29T14:28:47;8.90;99.90
51579;DHT22;47998;53.242;6.386;2022-12-29T14:36:38;8.80;99.90
51579;DHT22;47998;53.242;6.386;2022-12-29T14:39:28;8.70;99.90
51579;DHT22;47998;53.242;6.386;2022-12-29T14:42:01;8.70;99.90
51579;DHT22;47998;53.242;6.386;2022-12-29T14:44:28;8.60;99.90
51579;DHT22;47998;53.242;6.386;2022-12-29T14:46:55;8.60;99.90
51579;DHT22;47998;53.242;6.386;2022-12-29T14:49:29;8.50;99.90
51579;DHT22;47998;53.242;6.386;2022-12-29T14:52:07;8.60;99.90
51579;DHT22;47998;53.242;6.386;2022-12-29T14:57:15;8.60;99.90
51579;DHT22;47998;53.242;6.386;2022-12-29T14:59:44;8.50;99.90
51579;DHT22;47998;53.242;6.386;2022-12-29T15:02:21;8.40;99.90
51579;DHT22;47998;53.242;6.386;2022-12-29T15:04:48;8.40;99.90
51579;DHT22;47998;53.242;6.386;2022-12-29T15:07:15;8.30;99.90
51579;DHT22;47998;53.242;6.386;2022-12-29T15:10:05;8.20;99.90
51579;DHT22;47998;53.242;6.386;2022-12-29T15:12:53;8.00;99.90
51579;DHT22;47998;53.242;6.386;2022-12-29T15:15:23;8.00;99.90
51579;DHT22;47998;53.242;6.386;2022-12-29T15:17:50;8.10;99.90
51579;DHT22;47998;53.242;6.386;2022-12-29T15:22:57;8.00;99.90
51579;DHT22;47998;53.242;6.386;2022-12-29T15:25:24;8.00;99.90
51579;DHT22;47998;53.242;6.386;2022-12-29T15:28:00;8.00;99.90
51579;DHT22;47998;53.242;6.386;2022-12-29T15:30:26;8.00;99.90
51579;DHT22;47998;53.242;6.386;2022-12-29T15:32:52;8.10;99.90
51579;DHT22;47998;53.242;6.386;2022-12-29T15:35:33;8.10;99.90
51579;DHT22;47998;53.242;6.386;2022-12-29T15:38:00;8.00;99.90
51579;DHT22;47998;53.242;6.386;2022-12-29T15:40:32;7.90;99.90
51579;DHT22;47998;53.242;6.386;2022-12-29T15:43:35;7.80;99.90
51579;DHT22;47998;53.242;6.386;2022-12-29T15:46:03;7.70;99.90
51579;DHT22;47998;53.242;6.386;2022-12-29T15:48:30;7.70;99.90
51579;DHT22;47998;53.242;6.386;2022-12-29T15:50:59;7.70;99.90
51579;DHT22;47998;53.242;6.386;2022-12-29T15:53:31;7.80;99.90
51579;DHT22;47998;53.242;6.386;2022-12-29T15:56:00;7.80;99.90
51579;DHT22;47998;53.242;6.386;2022-12-29T15:58:29;7.80;99.90
51579;DHT22;47998;53.242;6.386;2022-12-29T16:00:57;7.80;99.90
51579;DHT22;47998;53.242;6.386;2022-12-29T16:03:34;8.00;99.90
51579;DHT22;47998;53.242;6.386;2022-12-29T16:06:57;8.00;99.90
51579;DHT22;47998;53.242;6.386;2022-12-29T16:09:02;8.10;99.90
51579;DHT22;47998;53.242;6.386;2022-12-29T16:11:55;8.10;99.90
51579;DHT22;47998;53.242;6.386;2022-12-29T16:16:58;8.00;99.90
51579;DHT22;47998;53.242;6.386;2022-12-29T16:19:28;7.80;99.90
51579;DHT22;47998;53.242;6.386;2022-12-29T16:21:57;7.60;99.90
51579;DHT22;47998;53.242;6.386;2022-12-29T16:24:27;7.30;99.90
51579;DHT22;47998;53.242;6.386;2022-12-29T16:27:26;7.20;99.90
51579;DHT22;47998;53.242;6.386;2022-12-29T16:29:54;7.10;99.90
51579;DHT22;47998;53.242;6.386;2022-12-29T16:32:29;7.00;99.90
51579;DHT22;47998;53.242;6.386;2022-12-29T16:35:12;6.90;99.90
51579;DHT22;47998;53.242;6.386;2022-12-29T16:37:38;6.70;99.90
51579;DHT22;47998;53.242;6.386;2022-12-29T16:40:24;6.60;99.90
51579;DHT22;47998;53.242;6.386;2022-12-29T16:42:55;6.50;99.90
51579;DHT22;47998;53.242;6.386;2022-12-29T16:50:47;6.40;99.90
51579;DHT22;47998;53.242;6.386;2022-12-29T16:53:24;6.40;99.90
51579;DHT22;47998;53.242;6.386;2022-12-29T16:55:52;6.40;99.90
51579;DHT22;47998;53.242;6.386;2022-12-29T16:58:24;6.40;99.90
51579;DHT22;47998;53.242;6.386;2022-12-29T17:00:58;6.40;99.90
51579;DHT22;47998;53.242;6.386;2022-12-29T17:03:37;6.40;99.90
51579;DHT22;47998;53.242;6.386;2022-12-29T17:06:05;6.40;99.90
51579;DHT22;47998;53.242;6.386;2022-12-29T17:08:40;6.40;99.90
51579;DHT22;47998;53.242;6.386;2022-12-29T17:11:26;6.40;99.90
51579;DHT22;47998;53.242;6.386;2022-12-29T17:17:04;6.40;99.90
51579;DHT22;47998;53.242;6.386;2022-12-29T17:19:33;6.50;99.90
51579;DHT22;47998;53.242;6.386;2022-12-29T17:22:00;6.60;99.90
51579;DHT22;47998;53.242;6.386;2022-12-29T17:24:29;6.50;99.90
51579;DHT22;47998;53.242;6.386;2022-12-29T17:26:57;6.60;99.90
51579;DHT22;47998;53.242;6.386;2022-12-29T17:31:59;6.70;99.90
51579;DHT22;47998;53.242;6.386;2022-12-29T17:34:25;8.10;99.90
51579;DHT22;47998;53.242;6.386;2022-12-29T17:36:51;6.80;99.90
51579;DHT22;47998;53.242;6.386;2022-12-29T17:39:17;6.90;99.90
51579;DHT22;47998;53.242;6.386;2022-12-29T17:41:44;7.10;99.90
51579;DHT22;47998;53.242;6.386;2022-12-29T17:44:16;7.10;99.90
51579;DHT22;47998;53.242;6.386;2022-12-29T17:46:43;7.20;99.90
51579;DHT22;47998;53.242;6.386;2022-12-29T17:49:15;7.30;99.90
51579;DHT22;47998;53.242;6.386;2022-12-29T17:51:44;7.30;99.90
51579;DHT22;47998;53.242;6.386;2022-12-29T17:54:22;7.30;99.90
51579;DHT22;47998;53.242;6.386;2022-12-29T17:56:48;7.30;99.90
51579;DHT22;47998;53.242;6.386;2022-12-29T17:59:15;7.30;99.90
51579;DHT22;47998;53.242;6.386;2022-12-29T18:01:42;7.40;99.90
51579;DHT22;47998;53.242;6.386;2022-12-29T18:04:13;7.30;99.90
51579;DHT22;47998;53.242;6.386;2022-12-29T18:06:40;7.30;99.90
51579;DHT22;47998;53.242;6.386;2022-12-29T18:09:06;7.40;99.90
51579;DHT22;47998;53.242;6.386;2022-12-29T18:11:33;7.40;99.90
51579;DHT22;47998;53.242;6.386;2022-12-29T18:14:00;7.40;99.90
51579;DHT22;47998;53.242;6.386;2022-12-29T18:16:26;7.40;99.90
51579;DHT22;47998;53.242;6.386;2022-12-29T18:18:52;7.40;99.90
51579;DHT22;47998;53.242;6.386;2022-12-29T18:21:19;7.30;99.90
51579;DHT22;47998;53.242;6.386;2022-12-29T18:23:46;7.30;99.90
51579;DHT22;47998;53.242;6.386;2022-12-29T18:26:21;7.30;99.90
51579;DHT22;47998;53.242;6.386;2022-12-29T18:28:48;7.30;99.90
51579;DHT22;47998;53.242;6.386;2022-12-29T18:31:18;7.40;99.90
51579;DHT22;47998;53.242;6.386;2022-12-29T18:33:44;7.40;99.90
51579;DHT22;47998;53.242;6.386;2022-12-29T18:36:11;7.50;99.90
51579;DHT22;47998;53.242;6.386;2022-12-29T18:38:37;7.40;99.90
51579;DHT22;47998;53.242;6.386;2022-12-29T18:41:03;7.40;99.90
51579;DHT22;47998;53.242;6.386;2022-12-29T18:43:29;7.50;99.90
51579;DHT22;47998;53.242;6.386;2022-12-29T18:45:55;7.40;99.90
51579;DHT22;47998;53.242;6.386;2022-12-29T18:48:21;7.40;99.90
51579;DHT22;47998;53.242;6.386;2022-12-29T18:50:47;7.50;99.90